Time;durP1;ratioP1;P1;durP2;ratioP2;P2;SDS_P1;SDS_P2;PMS_P1;PMS_P2;Temp;Humidity;BMP_temperature;BMP_pressure;BME280_temperature;BME280_humidity;BME280_pressure;Samples;Min_cycle;Max_cycle;Signal;HPM_P1;HPM_P2
2022/12/02 00:00:23;;;;;;;55.13;31.30;;;-6.90;99.90;;;;;;5014500;28;20189;-71
2022/12/02 00:02:49;;;;;;;50.87;32.17;;;-6.40;99.90;;;;;;5017730;28;20196;-73
2022/12/02 00:05:17;;;;;;;52.53;34.00;;;-6.60;99.90;;;;;;5014709;28;20497;-76
2022/12/02 00:07:44;;;;;;;47.50;30.70;;;-7.10;99.90;;;;;;5014820;28;20204;-72
2022/12/02 00:10:22;;;;;;;47.37;31.07;;;-6.80;99.90;;;;;;5015253;28;20181;-72
2022/12/02 00:12:48;;;;;;;51.63;32.27;;;-6.70;99.90;;;;;;5028808;28;20188;-75
2022/12/02 00:15:44;;;;;;;49.50;29.57;;;-7.00;99.90;;;;;;5014193;28;20177;-75
2022/12/02 00:18:15;;;;;;;55.20;31.87;;;-6.70;99.90;;;;;;5013627;28;20204;-73
2022/12/02 00:20:42;;;;;;;50.27;29.97;;;-6.40;99.90;;;;;;5014765;28;20189;-73
2022/12/02 00:23:08;;;;;;;57.63;33.20;;;-6.00;99.90;;;;;;5014783;28;20469;-74
2022/12/02 00:25:34;;;;;;;59.70;34.17;;;-6.30;99.90;;;;;;5013904;28;20196;-72
2022/12/02 00:28:00;;;;;;;57.10;33.27;;;-6.10;99.90;;;;;;5015098;28;20197;-74
2022/12/02 00:30:26;;;;;;;51.83;32.50;;;-6.30;99.90;;;;;;5014336;28;20606;-72
2022/12/02 00:32:52;;;;;;;51.53;31.93;;;-6.30;99.90;;;;;;5016289;28;20201;-72
2022/12/02 00:35:18;;;;;;;55.53;31.70;;;-6.50;99.90;;;;;;5014054;28;20604;-74
2022/12/02 00:37:43;;;;;;;57.80;31.60;;;-6.90;99.90;;;;;;5014498;28;20798;-73
2022/12/02 00:40:10;;;;;;;53.57;32.07;;;-7.50;99.90;;;;;;5027018;28;20189;-73
2022/12/02 00:42:36;;;;;;;51.97;31.30;;;-7.50;99.90;;;;;;5014736;28;20280;-72
2022/12/02 00:47:47;;;;;;;52.47;31.20;;;-8.00;99.90;;;;;;5014637;28;20219;-72
2022/12/02 00:50:13;;;;;;;56.23;29.90;;;-7.80;99.90;;;;;;5026889;28;20430;-73
2022/12/02 00:52:39;;;;;;;57.60;34.93;;;-7.70;99.90;;;;;;5014375;28;20181;-71
2022/12/02 00:55:05;;;;;;;55.53;33.30;;;-8.20;99.90;;;;;;5013705;28;20213;-73
2022/12/02 00:57:30;;;;;;;48.03;30.30;;;-8.30;99.90;;;;;;5015975;28;20231;-72
2022/12/02 00:59:56;;;;;;;62.43;33.53;;;-7.90;99.90;;;;;;5015178;28;20290;-77
2022/12/02 01:02:22;;;;;;;50.77;32.83;;;-8.20;99.90;;;;;;5027061;28;20196;-72
2022/12/02 01:04:47;;;;;;;54.13;32.10;;;-7.40;99.90;;;;;;5017285;28;20203;-71
2022/12/02 01:07:13;;;;;;;57.30;33.33;;;-6.80;99.90;;;;;;5046069;28;20290;-76
2022/12/02 01:09:40;;;;;;;54.73;33.40;;;-6.80;99.90;;;;;;5022596;28;20191;-73
2022/12/02 01:12:06;;;;;;;52.53;32.17;;;-6.90;99.90;;;;;;5023888;28;20497;-72
2022/12/02 01:14:32;;;;;;;57.23;35.97;;;-7.20;99.90;;;;;;5014573;28;20530;-72
2022/12/02 01:16:58;;;;;;;53.97;31.27;;;-6.60;99.90;;;;;;5013939;28;20195;-73
2022/12/02 01:19:23;;;;;;;53.47;31.47;;;-6.30;99.90;;;;;;5020459;28;20569;-71
2022/12/02 01:21:49;;;;;;;49.00;31.10;;;-7.50;99.90;;;;;;5016959;28;20637;-71
2022/12/02 01:24:15;;;;;;;54.50;32.07;;;-7.50;99.90;;;;;;5017333;28;20203;-72
2022/12/02 01:26:41;;;;;;;50.73;31.73;;;-6.60;99.90;;;;;;5013661;28;20500;-72
2022/12/02 01:29:07;;;;;;;57.00;33.90;;;-6.80;99.90;;;;;;5018715;28;20581;-70
2022/12/02 01:31:33;;;;;;;51.73;30.30;;;-6.30;99.90;;;;;;5017669;28;20185;-72
2022/12/02 01:33:59;;;;;;;50.83;31.70;;;-7.10;99.90;;;;;;5019253;28;20511;-73
2022/12/02 01:36:24;;;;;;;49.63;30.60;;;-7.00;99.90;;;;;;5017176;28;20465;-75
2022/12/02 01:38:50;;;;;;;55.17;33.07;;;-6.70;99.90;;;;;;5017694;28;20187;-72
2022/12/02 01:41:16;;;;;;;53.63;30.80;;;-7.60;99.90;;;;;;5018030;28;20216;-76
2022/12/02 01:43:42;;;;;;;49.37;31.73;;;-7.30;99.90;;;;;;5017345;28;20194;-76
2022/12/02 01:46:08;;;;;;;53.43;32.83;;;-7.30;99.90;;;;;;5016135;28;20238;-74
2022/12/02 01:48:35;;;;;;;48.37;29.93;;;-6.90;99.90;;;;;;5017984;28;20624;-73
2022/12/02 01:51:01;;;;;;;53.97;32.03;;;-7.40;99.90;;;;;;5016233;28;20212;-72
2022/12/02 01:53:27;;;;;;;51.23;30.47;;;-7.00;99.90;;;;;;5016687;28;20210;-74
2022/12/02 01:55:53;;;;;;;55.80;34.67;;;-7.20;99.90;;;;;;5016709;28;20445;-74
2022/12/02 01:58:27;;;;;;;53.57;33.80;;;-7.00;99.90;;;;;;5021605;28;20220;-71
2022/12/02 02:00:54;;;;;;;51.73;31.60;;;-7.20;99.90;;;;;;5031505;28;20191;-74
2022/12/02 02:03:20;;;;;;;54.30;34.37;;;-7.10;99.90;;;;;;5019993;28;20200;-76
2022/12/02 02:05:46;;;;;;;54.40;32.30;;;-7.70;99.90;;;;;;5029161;28;20568;-72
2022/12/02 02:08:13;;;;;;;49.63;30.67;;;-7.60;99.90;;;;;;5034202;28;20235;-72
2022/12/02 02:10:40;;;;;;;51.47;31.53;;;-7.10;99.90;;;;;;5018293;28;20185;-78
2022/12/02 02:13:08;;;;;;;49.47;30.00;;;-6.40;99.90;;;;;;5017478;28;21100;-73
2022/12/02 02:15:37;;;;;;;47.53;29.97;;;-5.50;99.90;;;;;;5017145;28;20466;-76
2022/12/02 02:18:03;;;;;;;49.27;33.27;;;-6.00;99.90;;;;;;5029902;28;20881;-73
2022/12/02 02:20:29;;;;;;;52.77;30.73;;;-6.50;99.90;;;;;;5016346;28;20196;-77
2022/12/02 02:23:04;;;;;;;51.67;30.67;;;-6.60;99.90;;;;;;5019791;28;20193;-77
2022/12/02 02:25:42;;;;;;;52.23;31.70;;;-6.40;99.90;;;;;;5028693;28;20311;-70
2022/12/02 02:28:08;;;;;;;45.97;29.47;;;-6.30;99.90;;;;;;5020431;28;20311;-73
2022/12/02 02:30:35;;;;;;;54.43;31.17;;;-5.90;99.90;;;;;;5017000;28;20482;-73
2022/12/02 02:33:04;;;;;;;52.77;30.90;;;-5.90;99.90;;;;;;5019191;28;20237;-75
2022/12/02 02:35:31;;;;;;;54.17;29.73;;;-5.70;99.90;;;;;;5016309;28;20184;-73
2022/12/02 02:37:57;;;;;;;52.37;28.03;;;-5.20;99.90;;;;;;5016154;28;20485;-73
2022/12/02 02:40:25;;;;;;;45.13;27.87;;;-5.60;99.90;;;;;;5015106;28;20216;-79
2022/12/02 02:42:54;;;;;;;53.93;29.83;;;-6.30;99.90;;;;;;5016765;28;20193;-74
2022/12/02 02:45:24;;;;;;;48.50;29.03;;;-6.70;99.90;;;;;;5016746;28;20494;-75
2022/12/02 02:47:50;;;;;;;52.60;32.20;;;-6.70;99.90;;;;;;5015788;28;20504;-77
2022/12/02 02:50:17;;;;;;;58.43;34.17;;;-6.60;99.90;;;;;;5016664;28;20257;-76
2022/12/02 02:52:43;;;;;;;57.30;32.53;;;-5.90;99.90;;;;;;5016503;28;20426;-80
2022/12/02 02:55:19;;;;;;;51.13;31.37;;;-5.90;99.90;;;;;;5016114;28;20512;-80
2022/12/02 02:57:45;;;;;;;58.60;33.40;;;-6.10;99.90;;;;;;5019614;28;20522;-76
2022/12/02 03:00:13;;;;;;;54.73;31.17;;;-6.40;99.90;;;;;;5016827;28;20425;-78
2022/12/02 03:02:39;;;;;;;51.13;32.33;;;-6.50;99.90;;;;;;5017233;28;20581;-73
2022/12/02 03:05:06;;;;;;;54.17;29.23;;;-6.10;99.90;;;;;;5015994;28;20761;-79
2022/12/02 03:07:32;;;;;;;53.33;32.07;;;-6.20;99.90;;;;;;5015416;28;20480;-77
2022/12/02 03:09:58;;;;;;;48.17;30.93;;;-6.00;99.90;;;;;;5022334;28;20191;-77
2022/12/02 03:12:24;;;;;;;55.50;30.67;;;-5.80;99.90;;;;;;5016144;28;20188;-79
2022/12/02 03:14:50;;;;;;;56.63;31.27;;;-5.60;99.90;;;;;;5016157;28;20209;-78
2022/12/02 03:17:16;;;;;;;51.67;29.07;;;-5.60;99.90;;;;;;5015273;28;20200;-75
2022/12/02 03:19:42;;;;;;;55.03;31.93;;;-5.00;99.90;;;;;;5015636;28;20430;-75
2022/12/02 03:22:09;;;;;;;52.80;33.13;;;-6.10;99.90;;;;;;5015874;28;20203;-75
2022/12/02 03:24:36;;;;;;;47.63;31.10;;;-6.50;99.90;;;;;;5015918;28;20433;-76
2022/12/02 03:27:04;;;;;;;50.13;33.50;;;-6.20;99.90;;;;;;5021460;28;20469;-79
2022/12/02 03:29:31;;;;;;;62.63;31.73;;;-5.80;99.90;;;;;;5027819;28;20485;-80
2022/12/02 03:31:58;;;;;;;55.80;33.47;;;-5.20;99.90;;;;;;5031132;28;20437;-78
2022/12/02 03:34:25;;;;;;;56.27;31.53;;;-6.10;99.90;;;;;;5015219;28;20218;-79
2022/12/02 03:36:50;;;;;;;59.40;33.00;;;-6.20;99.90;;;;;;5016056;28;20896;-80
2022/12/02 03:39:17;;;;;;;55.83;35.17;;;-6.50;99.90;;;;;;5015416;28;20424;-80
2022/12/02 03:41:45;;;;;;;54.70;32.67;;;-7.00;99.90;;;;;;5015199;28;20182;-77
2022/12/02 03:44:11;;;;;;;55.67;33.17;;;-6.90;99.90;;;;;;5022361;28;20429;-80
2022/12/02 03:46:37;;;;;;;60.03;33.07;;;-6.40;99.90;;;;;;5015259;28;20433;-78
2022/12/02 03:49:03;;;;;;;55.13;33.20;;;-5.70;99.90;;;;;;5014998;28;20480;-77
2022/12/02 03:51:30;;;;;;;61.33;32.40;;;-5.20;99.90;;;;;;5014683;28;20515;-79
2022/12/02 03:53:56;;;;;;;65.30;34.23;;;-6.50;99.90;;;;;;5015182;28;21028;-79
2022/12/02 03:56:22;;;;;;;56.50;32.10;;;-7.20;99.90;;;;;;5027566;28;20207;-74
2022/12/02 03:58:52;;;;;;;57.83;32.97;;;-6.20;99.90;;;;;;5020527;28;20501;-78
2022/12/02 04:01:20;;;;;;;70.70;35.10;;;-7.10;99.90;;;;;;5015181;28;20440;-73
2022/12/02 04:03:46;;;;;;;60.70;33.33;;;-7.30;99.90;;;;;;5046278;28;20662;-72
2022/12/02 04:06:12;;;;;;;62.03;34.43;;;-6.50;99.90;;;;;;5014571;28;20430;-73
2022/12/02 04:08:38;;;;;;;65.83;37.50;;;-6.40;99.90;;;;;;5014385;28;20602;-79
2022/12/02 04:11:04;;;;;;;58.77;34.00;;;-5.90;99.90;;;;;;5021641;28;20477;-79
2022/12/02 04:13:30;;;;;;;56.87;32.57;;;-6.20;99.90;;;;;;5027896;28;20279;-77
2022/12/02 04:15:56;;;;;;;53.30;31.97;;;-7.10;99.90;;;;;;5021316;28;20191;-73
2022/12/02 04:18:22;;;;;;;59.77;33.93;;;-6.80;99.90;;;;;;5027035;28;20659;-74
2022/12/02 04:20:48;;;;;;;61.93;32.70;;;-6.80;99.90;;;;;;5014477;28;20200;-75
2022/12/02 04:23:14;;;;;;;58.30;33.33;;;-6.40;99.90;;;;;;5027407;28;20181;-76
2022/12/02 04:25:39;;;;;;;59.57;34.27;;;-6.30;99.90;;;;;;5014494;28;20188;-77
2022/12/02 04:28:05;;;;;;;61.07;31.27;;;-6.70;99.90;;;;;;5021496;28;20213;-72
2022/12/02 04:30:31;;;;;;;52.17;31.10;;;-5.40;99.90;;;;;;5046733;28;20170;-73
2022/12/02 04:32:57;;;;;;;67.13;34.00;;;-5.90;99.90;;;;;;5014612;28;20239;-73
2022/12/02 04:35:23;;;;;;;67.37;34.87;;;-5.50;99.90;;;;;;5014510;28;20184;-74
2022/12/02 04:37:50;;;;;;;58.03;34.67;;;-5.70;99.90;;;;;;5014984;28;20238;-74
2022/12/02 04:40:17;;;;;;;53.07;28.77;;;-5.20;99.90;;;;;;5019541;28;20192;-73
2022/12/02 04:42:43;;;;;;;58.07;34.70;;;-5.90;99.90;;;;;;5014691;28;20514;-75
2022/12/02 04:45:09;;;;;;;63.47;35.20;;;-5.50;99.90;;;;;;5016111;28;20260;-74
2022/12/02 04:47:35;;;;;;;61.17;32.87;;;-5.80;99.90;;;;;;5014466;28;20271;-74
2022/12/02 04:50:02;;;;;;;60.47;34.87;;;-6.00;99.90;;;;;;5014316;28;20866;-73
2022/12/02 04:52:28;;;;;;;74.07;36.40;;;-4.90;99.90;;;;;;5027403;28;20209;-73
2022/12/02 04:54:53;;;;;;;64.83;36.13;;;-6.10;99.90;;;;;;5014286;28;20216;-76
2022/12/02 04:57:19;;;;;;;69.33;35.77;;;-5.70;99.90;;;;;;5014083;28;20212;-75
2022/12/02 04:59:45;;;;;;;66.57;36.77;;;-6.90;99.90;;;;;;5014248;28;20593;-75
2022/12/02 05:02:10;;;;;;;56.47;33.00;;;-5.80;99.90;;;;;;5027608;28;20202;-74
2022/12/02 05:04:36;;;;;;;73.20;36.20;;;-6.10;99.90;;;;;;5017405;28;20243;-74
2022/12/02 05:07:02;;;;;;;71.83;37.93;;;-5.70;99.90;;;;;;5018321;28;20228;-75
2022/12/02 05:09:28;;;;;;;75.03;39.63;;;-6.30;99.90;;;;;;5018121;28;20197;-74
2022/12/02 05:11:53;;;;;;;74.37;35.43;;;-5.20;99.90;;;;;;5020351;28;20185;-74
2022/12/02 05:14:19;;;;;;;63.80;33.63;;;-7.40;99.90;;;;;;5018090;28;20193;-75
2022/12/02 05:16:45;;;;;;;72.87;36.17;;;-6.20;99.90;;;;;;5022269;28;20222;-74
2022/12/02 05:19:10;;;;;;;69.77;35.47;;;-7.20;99.90;;;;;;5017776;28;20314;-74
2022/12/02 05:21:36;;;;;;;66.57;35.23;;;-6.70;99.90;;;;;;5017964;28;20189;-74
2022/12/02 05:24:02;;;;;;;74.03;37.40;;;-7.00;99.90;;;;;;5017867;28;20187;-75
2022/12/02 05:26:28;;;;;;;65.73;34.17;;;-6.40;99.90;;;;;;5031392;28;20181;-75
2022/12/02 05:28:53;;;;;;;63.00;36.93;;;-6.10;99.90;;;;;;5031169;28;20563;-75
2022/12/02 05:31:19;;;;;;;71.53;34.77;;;-6.40;99.90;;;;;;5017831;28;20192;-74
2022/12/02 05:33:45;;;;;;;64.57;36.13;;;-6.00;99.90;;;;;;5017788;28;20262;-74
2022/12/02 05:36:11;;;;;;;67.37;35.13;;;-6.40;99.90;;;;;;5049330;28;20189;-73
2022/12/02 05:38:40;;;;;;;72.33;37.80;;;-6.50;99.90;;;;;;5030571;28;20596;-74
2022/12/02 05:41:06;;;;;;;71.50;35.67;;;-6.30;99.90;;;;;;5017050;28;20276;-75
2022/12/02 05:43:42;;;;;;;63.73;33.03;;;-6.80;99.90;;;;;;5017460;28;20962;-75
2022/12/02 05:46:19;;;;;;;60.40;33.37;;;-6.10;99.90;;;;;;5022438;28;20245;-73
2022/12/02 05:48:47;;;;;;;59.83;33.87;;;-6.10;99.90;;;;;;5029650;28;20446;-76
2022/12/02 05:51:15;;;;;;;66.27;33.97;;;-7.00;99.90;;;;;;5017494;28;20470;-73
2022/12/02 05:53:42;;;;;;;60.57;32.47;;;-5.70;99.90;;;;;;5017345;28;20575;-75
2022/12/02 05:56:16;;;;;;;66.20;33.73;;;-6.70;99.90;;;;;;5028981;28;20235;-74
2022/12/02 05:58:41;;;;;;;63.27;33.97;;;-6.90;99.90;;;;;;5029621;28;20438;-74
2022/12/02 06:01:24;;;;;;;66.07;35.33;;;-7.10;99.90;;;;;;5029239;28;20717;-75
2022/12/02 06:03:50;;;;;;;55.83;30.27;;;-5.60;99.90;;;;;;5016788;28;20254;-74
2022/12/02 06:06:18;;;;;;;59.63;31.40;;;-6.20;99.90;;;;;;5049135;28;20422;-72
2022/12/02 06:08:44;;;;;;;59.27;31.67;;;-6.40;99.90;;;;;;5017278;28;20227;-74
2022/12/02 06:11:24;;;;;;;55.60;31.43;;;-6.60;99.90;;;;;;5016572;28;20874;-72
2022/12/02 06:13:51;;;;;;;57.40;31.63;;;-5.30;99.90;;;;;;5016603;28;20200;-72
2022/12/02 06:16:28;;;;;;;55.77;32.27;;;-4.70;99.90;;;;;;5028055;28;20433;-75
2022/12/02 06:18:54;;;;;;;50.97;29.03;;;-5.00;99.90;;;;;;5027524;28;20430;-73
2022/12/02 06:21:21;;;;;;;54.67;31.30;;;-5.80;99.90;;;;;;5024020;28;20440;-76
2022/12/02 06:23:54;;;;;;;56.33;30.53;;;-5.50;99.90;;;;;;5026941;28;20471;-77
2022/12/02 06:26:21;;;;;;;61.37;33.53;;;-4.60;99.90;;;;;;5019482;28;20466;-79
2022/12/02 06:28:51;;;;;;;58.67;31.73;;;-4.30;99.90;;;;;;5021487;28;20451;-78
2022/12/02 06:31:22;;;;;;;61.50;33.93;;;-4.30;99.90;;;;;;5016612;28;20865;-79
2022/12/02 06:33:51;;;;;;;62.13;31.10;;;-4.50;99.90;;;;;;5020360;28;20518;-80
2022/12/02 06:36:30;;;;;;;52.30;29.47;;;-3.40;99.90;;;;;;5016464;28;20457;-76
2022/12/02 06:39:00;;;;;;;70.13;35.30;;;-4.50;99.90;;;;;;5018623;28;20517;-84
2022/12/02 06:41:35;;;;;;;65.43;35.83;;;-3.20;99.90;;;;;;5016630;28;20422;-76
2022/12/02 06:47:00;;;;;;;76.40;37.73;;;-4.50;99.90;;;;;;5016256;28;20460;-78
2022/12/02 06:49:36;;;;;;;71.90;36.50;;;-5.10;99.90;;;;;;5016655;28;20457;-76
2022/12/02 06:52:15;;;;;;;74.90;36.60;;;-3.80;99.90;;;;;;5017146;28;20433;-74
2022/12/02 06:54:44;;;;;;;76.80;38.57;;;-5.60;99.90;;;;;;5023574;28;20470;-78
2022/12/02 06:57:11;;;;;;;74.23;36.37;;;-3.20;99.90;;;;;;5019527;28;20867;-82
2022/12/02 06:59:38;;;;;;;85.33;39.10;;;-4.90;99.90;;;;;;5016353;28;20531;-81
2022/12/02 07:02:19;;;;;;;83.40;39.10;;;-3.60;99.90;;;;;;5016471;28;20426;-74
2022/12/02 07:04:50;;;;;;;78.77;40.93;;;-3.70;99.90;;;;;;5017411;28;20478;-73
2022/12/02 07:07:22;;;;;;;79.80;41.33;;;-4.40;99.90;;;;;;5025184;28;20912;-76
2022/12/02 07:09:55;;;;;;;83.57;43.37;;;-4.50;99.90;;;;;;5029381;28;20429;-74
2022/12/02 07:12:27;;;;;;;81.77;41.10;;;-5.30;99.90;;;;;;5015727;28;20419;-77
2022/12/02 07:14:56;;;;;;;81.13;38.73;;;-4.60;99.90;;;;;;5021469;28;20422;-77
2022/12/02 07:17:21;;;;;;;76.00;38.57;;;-4.50;99.90;;;;;;5028803;28;20713;-75
2022/12/02 07:20:00;;;;;;;84.87;44.63;;;-4.30;99.90;;;;;;5015642;28;20444;-76
2022/12/02 07:22:54;;;;;;;93.77;43.00;;;-4.20;99.90;;;;;;5026206;28;20177;-77
2022/12/02 07:25:23;;;;;;;94.07;41.20;;;-4.20;99.90;;;;;;5012484;28;20537;-78
2022/12/02 07:27:50;;;;;;;88.27;43.27;;;-4.30;99.90;;;;;;5016682;28;20467;-75
2022/12/02 07:30:19;;;;;;;91.50;41.70;;;-4.50;99.90;;;;;;5031142;28;20491;-76
2022/12/02 07:32:45;;;;;;;83.37;41.07;;;-4.70;99.90;;;;;;5021147;28;20488;-76
2022/12/02 07:35:11;;;;;;;86.80;41.93;;;-5.40;99.90;;;;;;5029240;28;20430;-73
2022/12/02 07:37:36;;;;;;;81.90;39.93;;;-4.80;99.90;;;;;;5015523;28;20469;-79
2022/12/02 07:40:02;;;;;;;81.43;41.33;;;-4.90;99.90;;;;;;5016474;28;20197;-76
2022/12/02 07:42:28;;;;;;;91.23;41.87;;;-5.50;99.90;;;;;;5017033;28;20184;-76
2022/12/02 07:44:54;;;;;;;87.80;44.07;;;-5.30;99.90;;;;;;5021635;28;20487;-78
2022/12/02 07:47:20;;;;;;;94.80;42.30;;;-4.50;99.90;;;;;;5031743;28;20269;-78
2022/12/02 07:49:45;;;;;;;97.13;43.43;;;-5.00;99.90;;;;;;5017516;28;20179;-78
2022/12/02 07:52:11;;;;;;;102.73;44.10;;;-5.60;99.90;;;;;;5015211;28;20338;-75
2022/12/02 07:54:37;;;;;;;94.27;43.53;;;-5.40;99.90;;;;;;5020950;28;20277;-75
2022/12/02 07:57:02;;;;;;;81.63;42.97;;;-4.40;99.90;;;;;;5017063;28;20233;-75
2022/12/02 07:59:28;;;;;;;84.00;41.60;;;-4.90;99.90;;;;;;5016083;28;20180;-77
2022/12/02 08:01:54;;;;;;;91.40;39.83;;;-4.80;99.90;;;;;;5019519;28;20242;-76
2022/12/02 08:04:19;;;;;;;78.10;37.93;;;-5.30;99.90;;;;;;5013474;28;20223;-77
2022/12/02 08:06:45;;;;;;;82.57;39.60;;;-4.60;99.90;;;;;;5028264;28;20276;-79
2022/12/02 08:09:11;;;;;;;76.93;39.70;;;-4.40;99.90;;;;;;5017636;28;20212;-74
2022/12/02 08:11:37;;;;;;;79.27;36.23;;;-4.50;99.90;;;;;;5014854;28;20187;-76
2022/12/02 08:14:03;;;;;;;74.60;37.53;;;-4.10;99.90;;;;;;5023798;28;20203;-77
2022/12/02 08:16:28;;;;;;;85.43;39.23;;;-4.20;99.90;;;;;;5019021;28;20191;-74
2022/12/02 08:18:54;;;;;;;74.03;36.17;;;-4.70;99.90;;;;;;5014544;28;21127;-76
2022/12/02 08:21:20;;;;;;;79.00;39.23;;;-4.60;99.90;;;;;;5027158;28;20218;-77
2022/12/02 08:23:46;;;;;;;82.80;40.07;;;-5.20;99.90;;;;;;5014313;28;20213;-79
2022/12/02 08:26:12;;;;;;;75.20;36.87;;;-6.20;99.90;;;;;;5018139;28;20189;-78
2022/12/02 08:28:38;;;;;;;66.33;36.00;;;-4.60;99.90;;;;;;5026325;28;20247;-77
2022/12/02 08:31:03;;;;;;;69.47;36.23;;;-4.30;99.90;;;;;;5019755;28;20477;-78
2022/12/02 08:33:29;;;;;;;69.67;33.03;;;-5.10;99.90;;;;;;5051453;28;20184;-78
2022/12/02 08:35:55;;;;;;;67.00;33.87;;;-4.90;99.90;;;;;;5018150;28;20182;-75
2022/12/02 08:38:21;;;;;;;67.83;33.00;;;-4.40;99.90;;;;;;5015662;28;20186;-75
2022/12/02 08:40:46;;;;;;;75.67;34.80;;;-4.30;99.90;;;;;;5013340;28;20258;-74
2022/12/02 08:43:12;;;;;;;71.10;33.23;;;-4.50;99.90;;;;;;5014561;28;20196;-73
2022/12/02 08:45:38;;;;;;;60.97;32.23;;;-4.40;99.90;;;;;;5027698;28;20502;-75
2022/12/02 08:48:04;;;;;;;63.70;34.03;;;-3.80;99.90;;;;;;5013964;28;20455;-77
2022/12/02 08:50:30;;;;;;;57.40;29.40;;;-4.30;99.90;;;;;;5025227;28;20189;-76
2022/12/02 08:52:57;;;;;;;50.30;24.47;;;-4.50;99.90;;;;;;5028108;28;20584;-76
2022/12/02 08:55:23;;;;;;;47.57;26.90;;;-4.20;99.90;;;;;;5020766;28;20605;-74
2022/12/02 08:57:48;;;;;;;49.60;25.37;;;-5.10;99.90;;;;;;5020020;28;20440;-76
2022/12/02 09:00:14;;;;;;;43.03;23.27;;;-5.10;99.90;;;;;;5014370;28;20248;-77
2022/12/02 09:02:40;;;;;;;45.27;23.67;;;-4.70;99.90;;;;;;5012015;28;20187;-79
2022/12/02 09:05:06;;;;;;;35.03;19.43;;;-4.80;99.90;;;;;;5014014;28;20748;-76
2022/12/02 09:07:32;;;;;;;41.30;20.10;;;-4.80;99.90;;;;;;5013932;28;20211;-75
2022/12/02 09:09:57;;;;;;;41.77;22.37;;;-5.60;99.90;;;;;;5018082;28;20190;-73
2022/12/02 09:12:24;;;;;;;45.07;21.90;;;-5.30;99.90;;;;;;5013695;28;20500;-74
2022/12/02 09:14:50;;;;;;;41.83;21.60;;;-4.70;99.90;;;;;;5015367;28;20277;-77
2022/12/02 09:17:16;;;;;;;43.53;20.97;;;-4.50;99.90;;;;;;5022336;28;20887;-76
2022/12/02 09:19:41;;;;;;;45.77;22.17;;;-4.40;99.90;;;;;;5014827;28;20222;-75
2022/12/02 09:22:07;;;;;;;44.00;24.43;;;-4.30;99.90;;;;;;5013821;28;20210;-77
2022/12/02 09:24:33;;;;;;;48.87;24.93;;;-4.20;99.90;;;;;;5013343;28;20238;-75
2022/12/02 09:26:58;;;;;;;47.77;22.93;;;-5.30;99.90;;;;;;5013313;28;20192;-74
2022/12/02 09:29:24;;;;;;;53.47;25.87;;;-4.90;99.90;;;;;;5019703;28;20707;-74
2022/12/02 09:31:50;;;;;;;48.60;23.37;;;-4.90;99.90;;;;;;5013642;28;20195;-72
2022/12/02 09:34:16;;;;;;;44.00;22.27;;;-5.70;99.90;;;;;;5013559;28;20183;-74
2022/12/02 09:36:41;;;;;;;46.47;22.90;;;-5.60;99.90;;;;;;5014618;28;20183;-74
2022/12/02 09:39:07;;;;;;;55.70;24.97;;;-6.00;99.90;;;;;;5015401;28;20611;-76
2022/12/02 09:41:33;;;;;;;50.40;22.63;;;-5.80;99.90;;;;;;5012954;28;20595;-75
2022/12/02 09:43:58;;;;;;;44.87;22.93;;;-5.60;99.90;;;;;;5014832;28;20223;-74
2022/12/02 09:46:31;;;;;;;46.70;23.27;;;-6.10;99.90;;;;;;5019204;28;20190;-73
2022/12/02 09:48:57;;;;;;;50.73;25.63;;;-7.20;99.90;;;;;;5014268;28;20624;-72
2022/12/02 09:51:23;;;;;;;49.97;26.17;;;-7.00;99.90;;;;;;5016956;28;20982;-79
2022/12/02 09:53:49;;;;;;;51.80;27.00;;;-6.60;99.90;;;;;;5016811;28;20543;-77
2022/12/02 09:56:18;;;;;;;47.77;24.80;;;-6.00;99.90;;;;;;5017461;28;20216;-77
2022/12/02 09:58:46;;;;;;;45.23;23.20;;;-7.00;99.90;;;;;;5029330;28;20458;-80
2022/12/02 10:01:13;;;;;;;47.97;23.67;;;-7.20;99.90;;;;;;5026452;28;20447;-77
2022/12/02 10:03:40;;;;;;;44.23;23.67;;;-7.40;99.90;;;;;;5016933;28;20448;-77
2022/12/02 10:06:12;;;;;;;55.33;25.77;;;-7.50;99.90;;;;;;5018882;28;20427;-75
2022/12/02 10:08:38;;;;;;;47.70;24.13;;;-7.20;99.90;;;;;;5031076;28;20493;-74
2022/12/02 10:11:04;;;;;;;47.03;24.90;;;-6.60;99.90;;;;;;5023470;28;20428;-75
2022/12/02 10:13:38;;;;;;;43.80;23.13;;;-6.90;99.90;;;;;;5028292;28;20716;-74
2022/12/02 10:16:11;;;;;;;49.30;24.83;;;-7.10;99.90;;;;;;5026262;28;20446;-73
2022/12/02 10:18:38;;;;;;;46.70;22.90;;;-7.30;99.90;;;;;;5016766;28;20442;-72
2022/12/02 10:21:03;;;;;;;44.27;25.33;;;-6.80;99.90;;;;;;5016988;28;20447;-73
2022/12/02 10:23:29;;;;;;;44.27;24.47;;;-7.00;99.90;;;;;;5016421;28;20435;-74
2022/12/02 10:26:11;;;;;;;50.83;24.93;;;-5.70;99.90;;;;;;5016278;28;20545;-76
2022/12/02 10:28:38;;;;;;;51.53;23.77;;;-6.90;99.90;;;;;;5018903;28;20331;-77
2022/12/02 10:31:21;;;;;;;48.50;25.43;;;-7.50;99.90;;;;;;5016612;28;20440;-72
2022/12/02 10:34:01;;;;;;;49.97;23.53;;;-7.70;99.90;;;;;;5031457;28;20518;-72
2022/12/02 10:36:39;;;;;;;47.47;25.07;;;-7.50;99.90;;;;;;5018298;28;20442;-71
2022/12/02 10:39:34;;;;;;;70.67;24.27;;;-7.50;99.90;;;;;;5015698;28;20427;-72
2022/12/02 10:42:02;;;;;;;50.70;23.73;;;-7.30;99.90;;;;;;5021863;28;20437;-73
2022/12/02 10:44:29;;;;;;;48.27;22.43;;;-7.60;99.90;;;;;;5028615;28;20955;-71
2022/12/02 10:47:17;;;;;;;46.30;23.37;;;-6.70;99.90;;;;;;5018972;28;20431;-71
2022/12/02 10:49:51;;;;;;;41.57;21.30;;;-6.70;99.90;;;;;;5016816;28;20427;-75
2022/12/02 10:52:22;;;;;;;34.73;20.80;;;-6.80;99.90;;;;;;5021499;28;20422;-73
2022/12/02 10:54:50;;;;;;;41.77;20.00;;;-7.10;99.90;;;;;;5015438;28;20440;-77
2022/12/02 10:57:31;;;;;;;36.77;17.27;;;-7.00;99.90;;;;;;5015579;28;20453;-72
2022/12/02 11:00:01;;;;;;;36.07;18.97;;;-6.80;99.90;;;;;;5017000;28;21021;-75
2022/12/02 11:02:37;;;;;;;47.13;18.73;;;-6.90;99.90;;;;;;5015453;28;20431;-70
2022/12/02 11:05:31;;;;;;;41.10;20.77;;;-7.30;99.90;;;;;;5014810;28;20539;-71
2022/12/02 11:08:06;;;;;;;41.03;21.50;;;-7.30;99.90;;;;;;5015161;28;20478;-78
2022/12/02 11:10:40;;;;;;;48.77;23.40;;;-7.10;99.90;;;;;;5025343;28;20481;-71
2022/12/02 11:13:26;;;;;;;39.73;19.37;;;-7.40;99.90;;;;;;5015091;28;20644;-74
2022/12/02 11:15:52;;;;;;;51.43;25.90;;;-7.00;99.90;;;;;;5019353;28;20851;-71
2022/12/02 11:18:24;;;;;;;47.60;25.47;;;-6.60;99.90;;;;;;5015645;28;20470;-71
2022/12/02 11:21:07;;;;;;;35.07;20.07;;;-6.40;99.90;;;;;;5015042;28;20433;-71
2022/12/02 11:23:33;;;;;;;39.73;21.27;;;-6.50;99.90;;;;;;5025033;28;20464;-71
2022/12/02 11:26:10;;;;;;;38.00;22.30;;;-6.90;99.90;;;;;;5016108;28;20437;-70
2022/12/02 11:29:15;;;;;;;38.90;20.40;;;-7.00;99.90;;;;;;5019436;28;20487;-70
2022/12/02 11:31:41;;;;;;;38.63;20.93;;;-7.80;99.90;;;;;;5019921;28;20438;-71
2022/12/02 11:34:24;;;;;;;37.57;18.03;;;-8.40;99.90;;;;;;5025295;28;21075;-77
2022/12/02 11:37:33;;;;;;;36.57;19.63;;;-8.00;99.90;;;;;;5015797;28;20651;-71
2022/12/02 11:40:21;;;;;;;37.23;19.13;;;-7.20;99.90;;;;;;5019959;28;20487;-71
2022/12/02 11:42:47;;;;;;;35.13;19.57;;;-6.30;99.90;;;;;;5014147;28;20432;-72
2022/12/02 11:45:15;;;;;;;39.23;20.90;;;-6.90;99.90;;;;;;5017046;28;20524;-76
2022/12/02 11:47:56;;;;;;;36.77;19.83;;;-7.00;99.90;;;;;;5018909;28;20215;-73
2022/12/02 11:50:33;;;;;;;35.60;19.43;;;-6.90;99.90;;;;;;5014466;28;20427;-70
2022/12/02 11:52:59;;;;;;;40.33;20.80;;;-6.90;99.90;;;;;;5017995;28;20428;-76
2022/12/02 11:55:33;;;;;;;37.73;22.20;;;-7.30;99.90;;;;;;5015769;28;20740;-73
2022/12/02 11:58:00;;;;;;;35.80;20.30;;;-7.10;99.90;;;;;;5015705;28;20199;-76
2022/12/02 12:00:35;;;;;;;40.53;21.50;;;-7.20;99.90;;;;;;5031006;28;20432;-71
2022/12/02 12:03:05;;;;;;;35.57;20.53;;;-7.10;99.90;;;;;;5017368;28;20501;-71
2022/12/02 12:05:31;;;;;;;32.03;19.90;;;-7.00;99.90;;;;;;5014299;28;20865;-70
2022/12/02 12:07:57;;;;;;;37.73;21.60;;;-7.70;99.90;;;;;;5026758;28;20463;-77
2022/12/02 12:10:29;;;;;;;36.73;22.13;;;-7.90;99.90;;;;;;5021161;28;20661;-79
2022/12/02 12:13:16;;;;;;;32.33;20.60;;;-8.10;99.90;;;;;;5014765;28;20188;-79
2022/12/02 12:15:54;;;;;;;32.43;17.40;;;-7.50;99.90;;;;;;5023383;28;20455;-78
2022/12/02 12:18:45;;;;;;;31.57;17.40;;;-7.30;99.90;;;;;;5020126;28;20847;-80
2022/12/02 12:21:29;;;;;;;25.50;14.10;;;-6.80;99.90;;;;;;5016590;28;20431;-78
2022/12/02 12:24:28;;;;;;;27.30;15.67;;;-7.00;99.90;;;;;;5017434;28;20438;-78
2022/12/02 12:27:02;;;;;;;30.40;15.00;;;-6.90;99.90;;;;;;5027688;28;20456;-80
2022/12/02 12:29:36;;;;;;;32.33;16.30;;;-6.60;99.90;;;;;;5027593;28;20443;-74
2022/12/02 12:32:03;;;;;;;28.47;15.83;;;-6.80;99.90;;;;;;5026044;28;20420;-78
2022/12/02 12:34:29;;;;;;;31.17;18.87;;;-6.50;99.90;;;;;;5020481;28;20570;-72
2022/12/02 12:36:56;;;;;;;31.30;17.07;;;-6.40;99.90;;;;;;5012748;28;20511;-73
2022/12/02 12:39:21;;;;;;;30.03;18.93;;;-6.80;99.90;;;;;;5025885;28;20718;-71